createdAt,value
2022-07-27T00:02:38.220Z,19.99
2022-07-27T00:12:39.586Z,20.01
2022-07-27T00:22:40.924Z,19.85
2022-07-27T00:32:42.283Z,19.82
2022-07-27T00:42:43.664Z,19.65
2022-07-27T00:52:45.074Z,19.68
2022-07-27T01:02:46.618Z,19.67
2022-07-27T01:12:48.633Z,19.65
2022-07-27T01:22:49.971Z,19.53
2022-07-27T01:32:51.303Z,19.49
2022-07-27T01:42:52.691Z,19.46
2022-07-27T01:52:54.151Z,19.37
2022-07-27T02:02:55.668Z,19.20
2022-07-27T02:12:57.014Z,19.20
2022-07-27T02:22:58.373Z,19.13
2022-07-27T02:32:59.849Z,19.12
2022-07-27T02:43:01.217Z,19.22
2022-07-27T02:53:02.622Z,19.15
2022-07-27T03:03:03.952Z,19.13
2022-07-27T03:13:05.343Z,19.33
2022-07-27T03:23:06.699Z,19.14
2022-07-27T03:33:08.060Z,19.07
2022-07-27T03:43:09.384Z,19.06
2022-07-27T03:53:10.802Z,18.94
2022-07-27T04:03:12.125Z,18.83
2022-07-27T04:13:13.449Z,18.61
2022-07-27T04:23:15.334Z,18.53
2022-07-27T04:33:16.680Z,18.43
2022-07-27T04:43:18.070Z,18.50
2022-07-27T04:53:19.498Z,18.51
2022-07-27T05:03:20.878Z,18.45
2022-07-27T05:13:22.240Z,18.74
2022-07-27T05:23:23.574Z,18.67
2022-07-27T05:33:25.680Z,18.70
2022-07-27T05:43:27.007Z,18.69
2022-07-27T05:53:28.364Z,18.76
2022-07-27T06:03:29.878Z,18.87
2022-07-27T06:13:35.729Z,19.08
2022-07-27T06:23:37.064Z,19.28
2022-07-27T06:33:38.532Z,19.86
2022-07-27T06:43:39.957Z,19.80
2022-07-27T06:53:41.396Z,20.03
2022-07-27T07:03:42.810Z,20.20
2022-07-27T07:13:45.152Z,20.02
2022-07-27T07:23:46.535Z,20.08
2022-07-27T07:33:47.947Z,20.33
2022-07-27T07:43:49.330Z,20.48
2022-07-27T07:53:50.694Z,20.84
2022-07-27T08:03:52.779Z,20.62
2022-07-27T08:13:54.162Z,20.69
2022-07-27T08:23:55.600Z,21.29
2022-07-27T08:34:00.270Z,21.17
2022-07-27T08:44:01.577Z,21.16
2022-07-27T08:54:02.823Z,21.98
2022-07-27T09:04:04.196Z,21.99
2022-07-27T09:14:05.693Z,21.91
2022-07-27T09:24:17.966Z,22.07
2022-07-27T09:34:24.563Z,22.56
2022-07-27T09:44:31.931Z,23.22
2022-07-27T09:54:33.889Z,22.84
2022-07-27T10:04:35.331Z,23.28
2022-07-27T10:14:36.801Z,23.22
2022-07-27T10:24:38.152Z,22.68
2022-07-27T10:34:39.541Z,22.90
2022-07-27T10:44:40.820Z,23.13
2022-07-27T10:54:42.201Z,23.20
2022-07-27T11:04:43.887Z,23.46
2022-07-27T11:14:45.501Z,23.41
2022-07-27T11:24:47.234Z,23.90
2022-07-27T11:34:48.725Z,23.61
2022-07-27T11:44:49.991Z,23.74
2022-07-27T11:54:52.856Z,23.48
2022-07-27T12:04:57.759Z,23.63
2022-07-27T12:15:16.726Z,23.62
2022-07-27T12:25:25.385Z,23.42
2022-07-27T12:35:26.728Z,23.89
2022-07-27T12:45:28.121Z,23.79
2022-07-27T12:55:29.558Z,24.24
2022-07-27T13:05:30.859Z,23.90
2022-07-27T13:15:32.435Z,24.32
2022-07-27T13:25:33.774Z,24.59
2022-07-27T13:35:35.051Z,24.37
2022-07-27T13:45:43.153Z,24.73
2022-07-27T13:55:45.134Z,24.34
2022-07-27T14:05:49.572Z,25.01
2022-07-27T14:15:54.046Z,24.30
2022-07-27T14:25:56.664Z,24.76
2022-07-27T14:35:58.218Z,25.38
2022-07-27T14:45:59.762Z,25.53
2022-07-27T14:56:01.130Z,25.35
2022-07-27T15:06:02.565Z,25.41
2022-07-27T15:16:03.922Z,25.11
2022-07-27T15:26:05.352Z,25.61
2022-07-27T15:36:06.772Z,25.35
2022-07-27T15:46:11.490Z,25.47
2022-07-27T15:56:16.165Z,25.39
2022-07-27T16:06:19.105Z,25.59
2022-07-27T16:16:30.668Z,25.50
2022-07-27T16:26:32.512Z,25.26
2022-07-27T16:36:38.441Z,25.59
2022-07-27T16:46:42.441Z,25.32
2022-07-27T16:56:43.844Z,25.54
2022-07-27T17:06:45.211Z,25.36
2022-07-27T17:16:51.742Z,25.22
2022-07-27T17:26:53.715Z,25.14
2022-07-27T17:36:55.115Z,24.64
2022-07-27T17:46:56.528Z,24.66
2022-07-27T17:56:57.941Z,24.57
2022-07-27T18:06:59.324Z,24.21
2022-07-27T18:17:00.738Z,23.90
2022-07-27T18:27:02.111Z,23.58
2022-07-27T18:37:03.603Z,23.12
2022-07-27T18:47:04.946Z,22.91
2022-07-27T18:57:06.267Z,22.55
2022-07-27T19:07:07.511Z,22.45
2022-07-27T19:17:10.774Z,22.12
2022-07-27T19:27:16.518Z,21.70
2022-07-27T19:37:17.944Z,21.58
2022-07-27T19:47:20.397Z,21.37
2022-07-27T19:57:21.809Z,21.17
2022-07-27T20:07:23.063Z,21.05
2022-07-27T20:17:24.332Z,20.88
2022-07-27T20:27:25.755Z,20.70
2022-07-27T20:37:27.100Z,20.48
2022-07-27T20:47:34.082Z,20.30
2022-07-27T20:57:36.008Z,20.17
2022-07-27T21:07:37.345Z,19.86
2022-07-27T21:17:38.725Z,19.75
2022-07-27T21:27:39.990Z,19.61
2022-07-27T21:37:45.590Z,19.47
2022-07-27T21:47:46.883Z,19.42
2022-07-27T21:57:48.275Z,19.32
2022-07-27T22:07:49.653Z,19.29
2022-07-27T22:17:51.240Z,19.02
2022-07-27T22:27:52.611Z,18.92
2022-07-27T22:37:53.984Z,18.63
2022-07-27T22:47:55.404Z,18.53
2022-07-27T22:57:56.726Z,18.30
2022-07-27T23:07:58.121Z,18.12
2022-07-27T23:17:59.470Z,17.94
2022-07-27T23:28:02.010Z,17.77
2022-07-27T23:38:03.323Z,17.60
2022-07-27T23:48:05.012Z,17.51
2022-07-27T23:58:06.358Z,17.43
